Hinojosa Del Duque, España

4:04 PM CEST en Agosto 21, 2014 (GMT +0200)
Cordoba | Change Station
CLOSE
Current Station
Aeropuerto
Location: Cordoba,
Altura: 302 ft
Estaciones meteorológicas cercanas

Alt 302 ft 37.84 °N, 4.85 °W | Updated 10 days ago

Clear
90 ° F
Sensación térmica 90 ° F
N
8
Viento Variable Viento desde Oeste
Gusts mph

Hoy
Alta -- | Baja -- ° F
--% Posibilidad de precipitaciones
Ayer
Alta -- | Baja -- ° F
Precip. -- pul
7:39 AM 9:06 PM
Creciente menguante, 14% visible
Presión 30.01 pul
Visibilidad -9999.0 Millas
Nubes
Punto de rocío 43 ° F
Humedad 18%
Precipitaciones 0.00 pul
Espesor de la nieve No disponible.
UV No disponible.
Polen No disponible.
Calidad del aire No disponible.
Flu Activity No disponible.
SPECI LEBA 110630Z 00000KT CAVOK 20/16 Q1016

More Conditions Fewer Conditions

Presión 30.01 pul
Visibilidad -9999.0 Millas
Nubes
Punto de rocío 43 ° F
Humedad 18%
Precipitaciones 0.00 pul
Espesor de la nieve No disponible.
UV No disponible.
Polen No disponible.
Calidad del aire No disponible.
Flu Activity No disponible.
SPECI LEBA 110630Z 00000KT CAVOK 20/16 Q1016

More Conditions Fewer Conditions

10-Day Weather Forecast

Almanac

Astronomía

Aug. 21, 2014 Salida Puesta
Hora real 7:39 AM CEST 9:06 PM CEST
Crepúsculo civil 7:11 AM CEST 9:34 PM CEST
Crepúsculo náutico 6:38 AM CEST 10:07 PM CEST
Crepúsculo astronómico 6:03 AM CEST 10:43 PM CEST
Luna 3:59 AM CEST 6:24 PM CEST
Horas de luz 14h 22m
Horas de luz
13h 26m
Tomorrow will be 2m 17s shorter.
Creciente menguante, 14% of the Moon is Illuminated
Hoy
Creciente menguante
Ago 25
Nueva
Sep 2
Cuarto creciente
Sep 8
Luna llena
Sep 15
Cuarto menguante

Extremos de ayer

Máximos del país Bajas del país

Community

WunderPhotos

Upload Photos

1,745,925 ¡fotos cargadas!

WunderBlogs® & News

Nearby

Calidad del aire

Not available.

Grosos de nieve

Not available.

Actividad de terremotos

Ciudad Distance Mag. Tiempo y dato
No hay informes recientes de la actividad sísmica.
Magnitud mínima muestra es 2,5.

Temperaturas de aguas costeras

Lugar Temperatura
Sin partes meteorológicos de las estaciones

Estaciones meteorológicas cercanas